Time;durP1;ratioP1;P1;durP2;ratioP2;P2;SDS_P1;SDS_P2;PMS_P1;PMS_P2;Temp;Humidity;BMP_temperature;BMP_pressure;BME280_temperature;BME280_humidity;BME280_pressure;Samples;Min_cycle;Max_cycle;Signal;HPM_P1;HPM_P2
2023/04/25 00:01:19;;;;;;;10.10;2.47;;;;;;;;;;5009702;28;20050;-68
2023/04/25 00:03:45;;;;;;;10.52;2.50;;;18.30;85.70;;;;;;5002100;28;20464;-67
2023/04/25 00:06:12;;;;;;;8.82;2.50;;;18.20;87.00;;;;;;4995249;28;20663;-64
2023/04/25 00:08:38;;;;;;;10.75;3.53;;;;;;;;;;5019269;28;20115;-63
2023/04/25 00:11:04;;;;;;;5.90;2.10;;;18.10;87.40;;;;;;4994038;28;20485;-63
2023/04/25 00:13:29;;;;;;;9.18;2.40;;;18.40;87.50;;;;;;5004485;28;20133;-64
2023/04/25 00:15:56;;;;;;;7.45;2.45;;;18.10;87.50;;;;;;5014580;28;20124;-63
2023/04/25 00:18:22;;;;;;;9.32;2.75;;;18.20;85.60;;;;;;5003703;28;20065;-67
2023/04/25 00:20:48;;;;;;;8.93;2.33;;;18.30;87.50;;;;;;5009653;28;20396;-68
2023/04/25 00:23:17;;;;;;;8.50;2.70;;;18.40;87.50;;;;;;5010753;28;20119;-65
2023/04/25 00:25:47;;;;;;;9.48;2.65;;;18.30;87.50;;;;;;4996831;28;20515;-63
2023/04/25 00:28:13;;;;;;;12.20;2.33;;;18.20;87.30;;;;;;4987094;28;20184;-68
2023/04/25 00:30:39;;;;;;;10.18;2.90;;;18.10;87.30;;;;;;5011842;28;20543;-68
2023/04/25 00:33:05;;;;;;;7.60;2.72;;;18.20;87.30;;;;;;5000529;28;20092;-68
2023/04/25 00:42:53;;;;;;;7.18;2.20;;;;;;;;;;4995076;28;20566;-68
2023/04/25 00:45:19;;;;;;;10.70;2.78;;;18.00;87.20;;;;;;5010709;28;20057;-68
2023/04/25 00:47:45;;;;;;;8.63;2.83;;;;;;;;;;5012105;28;20054;-69
2023/04/25 00:50:11;;;;;;;10.95;2.60;;;18.20;87.10;;;;;;5009952;28;20046;-69
2023/04/25 00:52:41;;;;;;;10.30;2.65;;;18.30;87.10;;;;;;4990294;28;20442;-68
2023/04/25 00:55:08;;;;;;;8.43;2.53;;;18.10;87.10;;;;;;4978765;28;20556;-63
2023/04/25 00:57:34;;;;;;;8.65;3.08;;;18.00;86.80;;;;;;4993011;28;20046;-63
2023/04/25 01:00:00;;;;;;;7.05;2.80;;;;;;;;;;4994171;28;20500;-67
2023/04/25 01:02:26;;;;;;;11.57;2.72;;;18.10;87.00;;;;;;5010085;28;20060;-63
2023/04/25 01:04:52;;;;;;;9.38;2.88;;;18.10;87.10;;;;;;5012263;28;20045;-64
2023/04/25 01:07:18;;;;;;;6.28;2.20;;;18.10;87.10;;;;;;5012563;28;20484;-62
2023/04/25 01:09:44;;;;;;;8.93;2.58;;;;;;;;;;5008131;28;20542;-68
2023/04/25 01:12:10;;;;;;;7.45;2.70;;;18.20;87.20;;;;;;5012616;28;20124;-68
2023/04/25 01:14:36;;;;;;;6.68;2.38;;;18.10;87.10;;;;;;5013618;28;20216;-63
2023/04/25 01:17:01;;;;;;;8.93;2.50;;;18.00;87.10;;;;;;5010774;28;20127;-63
2023/04/25 01:19:27;;;;;;;10.63;2.92;;;18.10;87.10;;;;;;4994876;28;20044;-62
2023/04/25 01:21:53;;;;;;;9.85;2.65;;;18.30;87.30;;;;;;5002179;28;20037;-64
2023/04/25 01:24:19;;;;;;;6.75;2.00;;;18.20;87.20;;;;;;5008899;28;20049;-63
2023/04/25 01:26:49;;;;;;;9.02;2.42;;;18.00;85.00;;;;;;5009888;28;20049;-63
2023/04/25 01:29:19;;;;;;;8.82;2.40;;;18.30;84.80;;;;;;4988934;28;20133;-65
2023/04/25 01:31:45;;;;;;;6.40;2.45;;;;;;;;;;5007881;28;20131;-63
2023/04/25 01:34:11;;;;;;;7.72;2.42;;;18.10;83.60;;;;;;5002212;28;20129;-63
2023/04/25 01:36:37;;;;;;;7.43;2.78;;;18.10;84.70;;;;;;4990706;28;20049;-65
2023/04/25 01:39:03;;;;;;;8.45;2.75;;;17.90;87.10;;;;;;5013429;28;20133;-63
2023/04/25 01:41:29;;;;;;;9.30;2.40;;;18.30;87.10;;;;;;5008829;28;20121;-68
2023/04/25 01:43:55;;;;;;;7.93;2.33;;;;;;;;;;5005066;28;20129;-68
2023/04/25 01:46:21;;;;;;;5.63;2.00;;;18.10;86.40;;;;;;5004962;28;20065;-63
2023/04/25 01:48:46;;;;;;;5.97;2.15;;;18.00;87.10;;;;;;5012790;28;20042;-63
2023/04/25 01:51:12;;;;;;;8.73;2.33;;;17.90;87.00;;;;;;5008946;28;20064;-64
2023/04/25 01:53:39;;;;;;;8.18;2.10;;;17.80;86.90;;;;;;5006926;28;20038;-62
2023/04/25 01:56:05;;;;;;;8.52;2.25;;;18.10;87.00;;;;;;5011017;28;20042;-63
2023/04/25 01:58:31;;;;;;;8.90;2.72;;;;;;;;;;4998378;28;20058;-65
2023/04/25 02:00:57;;;;;;;7.43;2.50;;;17.90;86.90;;;;;;4992861;28;20046;-63
2023/04/25 02:03:23;;;;;;;7.13;2.03;;;18.00;83.90;;;;;;5002684;28;20049;-66
2023/04/25 02:05:48;;;;;;;6.07;2.72;;;18.10;86.90;;;;;;5012908;28;20392;-62
2023/04/25 02:08:15;;;;;;;7.32;2.15;;;17.90;86.80;;;;;;5008411;28;20050;-62
2023/04/25 02:10:41;;;;;;;7.78;2.30;;;;;;;;;;5003863;28;20057;-65
2023/04/25 02:13:07;;;;;;;7.50;2.28;;;18.00;86.70;;;;;;5009024;28;20493;-62
2023/04/25 02:15:33;;;;;;;7.40;2.17;;;18.00;86.70;;;;;;5003548;28;20049;-64
2023/04/25 02:18:00;;;;;;;8.70;2.20;;;17.90;86.70;;;;;;4991632;28;20039;-63
2023/04/25 02:20:25;;;;;;;8.32;2.13;;;18.00;86.70;;;;;;4996985;28;20157;-62
2023/04/25 02:22:51;;;;;;;9.18;2.65;;;18.10;86.80;;;;;;5009805;28;20152;-63
2023/04/25 02:25:19;;;;;;;6.72;2.20;;;18.00;84.70;;;;;;5007797;28;20444;-64
2023/04/25 02:27:45;;;;;;;7.22;2.28;;;17.90;86.50;;;;;;4999302;28;20042;-64
2023/04/25 02:30:11;;;;;;;10.55;2.58;;;;;;;;;;4994391;28;20069;-62
2023/04/25 02:32:38;;;;;;;6.78;2.30;;;17.70;83.70;;;;;;5005394;28;20046;-68
2023/04/25 02:35:05;;;;;;;7.35;2.20;;;;;;;;;;5016511;28;20462;-64
2023/04/25 02:37:31;;;;;;;7.47;2.30;;;17.70;86.30;;;;;;5015430;28;20046;-63
2023/04/25 02:39:57;;;;;;;8.40;2.67;;;17.90;86.40;;;;;;5015307;28;20050;-63
2023/04/25 02:42:23;;;;;;;7.50;2.28;;;;;;;;;;5011851;28;20104;-64
2023/04/25 02:44:48;;;;;;;6.47;1.80;;;17.80;84.40;;;;;;5002971;28;20050;-68
2023/04/25 02:47:14;;;;;;;6.32;2.10;;;17.90;86.40;;;;;;5013798;28;20117;-62
2023/04/25 02:49:40;;;;;;;6.97;1.70;;;;;;;;;;5014489;28;20077;-64
2023/04/25 02:52:06;;;;;;;7.10;2.20;;;;;;;;;;5015303;28;20096;-67
2023/04/25 02:54:33;;;;;;;7.55;2.22;;;;;;;;;;5014070;28;20042;-63
2023/04/25 02:56:58;;;;;;;7.22;1.92;;;17.70;83.80;;;;;;5016055;28;20065;-64
2023/04/25 02:59:24;;;;;;;7.10;2.53;;;;;;;;;;5006043;28;20416;-67
2023/04/25 03:01:50;;;;;;;7.20;1.83;;;17.90;86.40;;;;;;5003482;28;20046;-65
2023/04/25 03:04:16;;;;;;;8.95;2.33;;;18.00;84.30;;;;;;5014524;28;20049;-63
2023/04/25 03:06:42;;;;;;;6.15;2.00;;;17.90;86.30;;;;;;5015930;28;20125;-62
2023/04/25 03:09:07;;;;;;;6.93;1.95;;;17.90;86.00;;;;;;5013406;28;20050;-62
2023/04/25 03:11:33;;;;;;;5.82;1.70;;;17.80;86.30;;;;;;4998417;28;20050;-62
2023/04/25 03:13:59;;;;;;;8.48;1.92;;;;;;;;;;5014455;28;20061;-65
2023/04/25 03:16:25;;;;;;;6.15;2.00;;;18.00;83.10;;;;;;5009971;28;20412;-64
2023/04/25 03:18:51;;;;;;;6.60;1.95;;;17.70;86.40;;;;;;4997076;28;20064;-63
2023/04/25 03:21:17;;;;;;;7.97;2.20;;;18.10;86.70;;;;;;5008454;28;20045;-63
2023/04/25 03:23:43;;;;;;;4.10;1.70;;;17.90;86.60;;;;;;5013091;28;20132;-64
2023/04/25 03:26:08;;;;;;;5.53;1.83;;;18.00;86.70;;;;;;5013857;28;20052;-62
2023/04/25 03:28:34;;;;;;;5.95;1.88;;;;;;;;;;5015602;28;20402;-64
2023/04/25 03:31:01;;;;;;;6.10;1.70;;;;;;;;;;5014792;28;20447;-62
2023/04/25 03:33:27;;;;;;;5.15;1.67;;;;;;;;;;5001747;28;20125;-64
2023/04/25 03:35:53;;;;;;;5.32;1.67;;;17.70;86.50;;;;;;5014276;28;20046;-64
2023/04/25 03:38:19;;;;;;;6.97;1.58;;;;;;;;;;5013726;28;20104;-62
2023/04/25 03:40:44;;;;;;;4.10;1.50;;;18.00;86.60;;;;;;5015332;28;20088;-63
2023/04/25 03:43:11;;;;;;;5.18;1.75;;;;;;;;;;5014377;28;20093;-63
2023/04/25 03:45:37;;;;;;;6.53;1.77;;;17.80;86.30;;;;;;5011853;28;20050;-63
2023/04/25 03:48:02;;;;;;;7.82;1.90;;;17.90;85.80;;;;;;4995820;28;20049;-64
2023/04/25 03:50:28;;;;;;;5.93;1.75;;;17.80;86.20;;;;;;5000311;28;20108;-63
2023/04/25 03:52:54;;;;;;;4.82;1.80;;;18.00;83.60;;;;;;5012908;28;20465;-64
2023/04/25 03:55:20;;;;;;;6.10;1.70;;;17.90;82.70;;;;;;5012389;28;20050;-62
2023/04/25 03:57:46;;;;;;;6.00;1.67;;;17.80;85.70;;;;;;5012444;28;20054;-64
2023/04/25 04:00:12;;;;;;;4.57;1.65;;;17.90;85.90;;;;;;5013650;28;20038;-63
2023/04/25 04:02:39;;;;;;;5.55;1.58;;;;;;;;;;5012031;28;20041;-63
2023/04/25 04:05:05;;;;;;;6.13;2.03;;;;;;;;;;5011571;28;20049;-65
2023/04/25 04:07:32;;;;;;;4.53;1.50;;;;;;;;;;5009295;28;20050;-66
2023/04/25 04:09:58;;;;;;;5.30;1.40;;;17.70;85.70;;;;;;5002039;28;20050;-64
2023/04/25 04:12:24;;;;;;;6.47;1.58;;;17.70;85.70;;;;;;5014754;28;20038;-63
2023/04/25 04:14:50;;;;;;;7.13;1.92;;;17.70;85.50;;;;;;5013317;28;20107;-66
2023/04/25 04:17:16;;;;;;;6.05;1.88;;;17.70;85.40;;;;;;5010301;28;20131;-63
2023/04/25 04:19:42;;;;;;;4.78;1.38;;;;;;;;;;5002640;28;20424;-65
2023/04/25 04:22:08;;;;;;;6.47;1.80;;;;;;;;;;4994623;28;20097;-63
2023/04/25 04:24:34;;;;;;;5.50;1.75;;;17.80;85.50;;;;;;4995754;28;20041;-64
2023/04/25 04:26:59;;;;;;;6.03;1.60;;;17.50;82.50;;;;;;5011660;28;20053;-63
2023/04/25 04:29:26;;;;;;;5.80;1.73;;;17.60;85.50;;;;;;4996174;28;20042;-66
2023/04/25 04:31:52;;;;;;;6.85;1.63;;;17.70;85.50;;;;;;4994618;28;20058;-64
2023/04/25 04:34:18;;;;;;;6.68;1.58;;;17.60;85.20;;;;;;5008935;28;20054;-68
2023/04/25 04:36:47;;;;;;;5.18;1.75;;;17.80;85.50;;;;;;5008313;28;20128;-62
2023/04/25 04:39:13;;;;;;;7.25;1.60;;;17.90;85.60;;;;;;5012534;28;20483;-62
2023/04/25 04:41:39;;;;;;;4.45;1.73;;;17.60;85.40;;;;;;5007782;28;20046;-63
2023/04/25 04:44:06;;;;;;;5.95;1.55;;;18.00;85.80;;;;;;4994051;28;20436;-64
2023/04/25 04:46:37;;;;;;;5.55;1.67;;;17.80;85.70;;;;;;5002273;28;20104;-63
2023/04/25 04:49:05;;;;;;;5.78;1.67;;;17.80;83.10;;;;;;5011063;28;20123;-68
2023/04/25 04:51:31;;;;;;;6.30;1.65;;;17.70;85.70;;;;;;4999459;28;20050;-64
2023/04/25 04:53:58;;;;;;;3.95;1.52;;;17.70;85.70;;;;;;4994326;28;20048;-64
2023/04/25 04:56:25;;;;;;;5.63;1.70;;;17.80;82.80;;;;;;5003843;28;20436;-64
2023/04/25 04:58:52;;;;;;;4.00;1.63;;;17.90;85.80;;;;;;5009712;28;20054;-63
2023/04/25 05:01:18;;;;;;;5.57;1.40;;;;;;;;;;5013599;28;20061;-63
2023/04/25 05:03:44;;;;;;;3.45;1.40;;;17.90;85.70;;;;;;5000689;28;20074;-63
2023/04/25 05:06:10;;;;;;;4.35;1.48;;;18.10;85.90;;;;;;5011158;28;20082;-63
2023/04/25 05:08:36;;;;;;;6.38;1.80;;;17.60;85.70;;;;;;5011759;28;20034;-63
2023/04/25 05:11:02;;;;;;;5.25;1.88;;;18.00;85.90;;;;;;5011976;28;20121;-62
2023/04/25 05:13:28;;;;;;;5.80;1.67;;;18.00;85.90;;;;;;5013115;28;20049;-62
2023/04/25 05:15:54;;;;;;;4.28;1.27;;;;;;;;;;5008424;28;20054;-67
2023/04/25 05:18:20;;;;;;;4.40;1.77;;;18.00;85.70;;;;;;4998301;28;20077;-66
2023/04/25 05:20:46;;;;;;;3.30;1.40;;;17.90;85.60;;;;;;5008968;28;20155;-64
2023/04/25 05:23:12;;;;;;;4.97;1.55;;;17.90;85.50;;;;;;5013513;28;20041;-63
2023/04/25 05:25:38;;;;;;;4.60;1.42;;;18.10;84.80;;;;;;5011141;28;20042;-64
2023/04/25 05:28:04;;;;;;;4.80;1.55;;;17.90;85.30;;;;;;5010587;28;20041;-66
2023/04/25 05:30:30;;;;;;;4.43;1.48;;;18.20;85.40;;;;;;5011853;28;20050;-63
2023/04/25 05:32:56;;;;;;;4.82;1.92;;;17.90;85.10;;;;;;5004674;28;20487;-63
2023/04/25 05:35:22;;;;;;;6.80;1.67;;;18.40;85.20;;;;;;4993473;28;20431;-66
2023/04/25 05:37:47;;;;;;;5.72;1.40;;;18.40;85.00;;;;;;5007374;28;20041;-63
2023/04/25 05:40:13;;;;;;;5.47;1.60;;;;;;;;;;5011343;28;20049;-65
2023/04/25 05:42:40;;;;;;;5.93;1.40;;;;;;;;;;5008567;28;20060;-63
2023/04/25 05:45:06;;;;;;;3.85;1.73;;;18.50;84.40;;;;;;4993695;28;20061;-64
2023/04/25 05:47:32;;;;;;;5.35;1.45;;;18.30;84.60;;;;;;5001213;28;20395;-63
2023/04/25 05:49:57;;;;;;;4.88;1.50;;;18.50;84.70;;;;;;5008431;28;20038;-62
2023/04/25 05:52:23;;;;;;;3.08;1.02;;;18.40;84.60;;;;;;5011885;28;20428;-62
2023/04/25 05:54:49;;;;;;;6.28;1.65;;;;;;;;;;5012479;28;20050;-66
2023/04/25 05:57:23;;;;;;;4.18;1.50;;;18.50;84.70;;;;;;5009359;28;20050;-67
2023/04/25 05:59:49;;;;;;;6.10;1.48;;;;;;;;;;5013175;28;20042;-67
2023/04/25 06:02:14;;;;;;;4.97;1.73;;;18.30;84.40;;;;;;5013058;28;20065;-64
2023/04/25 06:04:40;;;;;;;3.40;1.20;;;18.40;83.00;;;;;;5011008;28;20542;-67
2023/04/25 06:07:06;;;;;;;4.43;1.67;;;;;;;;;;5003463;28;20068;-67
2023/04/25 06:09:32;;;;;;;4.72;1.55;;;;;;;;;;5015443;28;20045;-67
2023/04/25 06:11:58;;;;;;;5.47;1.67;;;18.90;84.00;;;;;;5012388;28;20046;-68
2023/04/25 06:14:24;;;;;;;4.10;1.70;;;18.70;83.80;;;;;;5016722;28;20124;-64
2023/04/25 06:16:50;;;;;;;4.10;1.50;;;18.80;83.90;;;;;;5015726;28;20045;-64
2023/04/25 06:19:16;;;;;;;3.55;1.30;;;18.70;83.90;;;;;;4999668;28;20548;-63
2023/04/25 06:21:43;;;;;;;3.35;1.30;;;18.70;80.50;;;;;;5006573;28;20034;-63
2023/04/25 06:24:09;;;;;;;4.50;1.42;;;18.90;83.80;;;;;;5007184;28;20045;-64
2023/04/25 06:26:35;;;;;;;4.15;1.60;;;19.00;83.70;;;;;;5016438;28;20050;-64
2023/04/25 06:29:00;;;;;;;4.40;1.50;;;19.00;83.40;;;;;;5016656;28;20045;-64
2023/04/25 06:31:27;;;;;;;3.88;1.38;;;;;;;;;;5010901;28;20050;-67
2023/04/25 06:33:54;;;;;;;4.47;1.58;;;19.40;81.20;;;;;;5007699;28;20038;-66
2023/04/25 06:36:24;;;;;;;5.38;1.90;;;19.10;82.90;;;;;;5004110;28;20053;-66
2023/04/25 06:38:54;;;;;;;5.13;1.50;;;;;;;;;;5015720;28;20484;-66
2023/04/25 06:41:20;;;;;;;3.50;1.30;;;19.10;82.70;;;;;;5011304;28;20054;-68
2023/04/25 06:43:46;;;;;;;5.22;1.35;;;19.20;82.70;;;;;;5009967;28;20088;-64
2023/04/25 06:46:12;;;;;;;4.30;1.40;;;19.30;82.60;;;;;;4996369;28;20057;-63
2023/04/25 06:48:38;;;;;;;6.72;1.75;;;;;;;;;;4996545;28;20081;-72
2023/04/25 06:51:04;;;;;;;4.53;1.90;;;19.40;82.30;;;;;;4998036;28;20045;-61
2023/04/25 06:53:30;;;;;;;5.85;1.30;;;;;;;;;;5011455;28;20044;-70
2023/04/25 06:55:56;;;;;;;4.15;1.30;;;19.50;81.80;;;;;;5005603;28;20661;-68
2023/04/25 06:58:22;;;;;;;5.68;1.42;;;;;;;;;;5002877;28;20042;-68
2023/04/25 07:00:48;;;;;;;5.13;1.50;;;19.50;81.40;;;;;;4996443;28;20038;-67
2023/04/25 07:03:13;;;;;;;5.18;1.52;;;20.00;79.20;;;;;;5013327;28;20143;-66
2023/04/25 07:05:39;;;;;;;5.22;1.40;;;20.10;81.30;;;;;;5001830;28;20080;-63
2023/04/25 07:08:05;;;;;;;5.90;1.50;;;20.20;81.10;;;;;;5004560;28;20046;-63
2023/04/25 07:10:31;;;;;;;6.30;1.90;;;20.20;80.90;;;;;;5014772;28;20046;-65
2023/04/25 07:12:57;;;;;;;5.40;1.23;;;20.40;80.80;;;;;;5013642;28;20049;-63
2023/04/25 07:15:23;;;;;;;4.50;1.40;;;20.30;80.60;;;;;;5011289;28;20427;-63
2023/04/25 07:17:49;;;;;;;4.15;1.38;;;20.30;80.60;;;;;;5013715;28;20042;-62
2023/04/25 07:20:16;;;;;;;4.15;1.42;;;20.30;80.60;;;;;;4978091;28;20046;-63
2023/04/25 07:22:41;;;;;;;3.58;1.25;;;20.50;80.60;;;;;;5003428;28;20041;-62
2023/04/25 07:25:08;;;;;;;3.75;1.70;;;20.20;80.50;;;;;;5013432;28;20447;-61
2023/04/25 07:27:34;;;;;;;8.02;1.77;;;;;;;;;;5010823;28;20508;-64
2023/04/25 07:30:00;;;;;;;4.97;1.70;;;20.20;80.60;;;;;;5012554;28;20574;-66
2023/04/25 07:32:26;;;;;;;3.92;1.48;;;20.20;80.60;;;;;;5007014;28;20073;-70
2023/04/25 07:34:52;;;;;;;6.07;1.73;;;20.20;80.70;;;;;;5014984;28;20408;-67
2023/04/25 07:37:18;;;;;;;5.05;1.40;;;20.10;80.80;;;;;;5006175;28;20046;-62
2023/04/25 07:39:46;;;;;;;4.78;1.60;;;20.20;80.90;;;;;;5005734;28;20042;-68
2023/04/25 07:42:12;;;;;;;5.43;1.38;;;20.20;81.00;;;;;;5013959;28;20124;-67
2023/04/25 07:44:39;;;;;;;5.65;1.48;;;20.10;80.90;;;;;;4995135;28;20058;-64
2023/04/25 07:47:08;;;;;;;4.75;1.75;;;20.20;78.00;;;;;;5003352;28;20068;-63
2023/04/25 07:49:37;;;;;;;4.32;1.58;;;20.30;81.10;;;;;;5004366;28;20042;-62
2023/04/25 07:52:04;;;;;;;6.35;1.52;;;20.20;81.10;;;;;;5014439;28;20475;-64
2023/04/25 07:54:30;;;;;;;6.72;1.73;;;;;;;;;;5012578;28;20130;-69
2023/04/25 07:56:56;;;;;;;7.63;1.88;;;;;;;;;;5013183;28;20054;-71
2023/04/25 07:59:22;;;;;;;6.57;1.67;;;20.30;80.40;;;;;;5008852;28;20392;-63
2023/04/25 08:01:48;;;;;;;7.53;1.90;;;20.20;79.90;;;;;;5012952;28;20053;-71
2023/04/25 08:04:14;;;;;;;8.15;1.70;;;;;;;;;;5008110;28;20473;-62
2023/04/25 08:06:43;;;;;;;6.18;2.10;;;20.40;79.80;;;;;;5004276;28;20547;-69
2023/04/25 08:09:09;;;;;;;10.88;2.50;;;20.50;79.80;;;;;;5009339;28;20109;-71
2023/04/25 08:11:36;;;;;;;8.93;1.63;;;20.60;79.60;;;;;;5007969;28;20125;-71
2023/04/25 08:14:02;;;;;;;7.15;1.98;;;20.50;79.40;;;;;;5012238;28;20042;-70
2023/04/25 08:16:28;;;;;;;6.00;1.98;;;20.60;78.40;;;;;;5006989;28;20128;-70
2023/04/25 08:18:54;;;;;;;6.07;2.08;;;20.90;79.30;;;;;;5003872;28;20049;-69
2023/04/25 08:21:20;;;;;;;7.53;1.80;;;20.90;79.20;;;;;;5014646;28;20053;-69
2023/04/25 08:23:46;;;;;;;6.70;2.08;;;20.80;79.10;;;;;;4998446;28;20046;-68
2023/04/25 08:26:12;;;;;;;6.55;2.17;;;;;;;;;;4994864;28;20053;-65
2023/04/25 08:28:37;;;;;;;5.00;1.65;;;20.80;79.20;;;;;;5012390;28;20505;-68
2023/04/25 08:31:03;;;;;;;7.47;1.85;;;20.70;79.20;;;;;;5004020;28;20077;-71
2023/04/25 08:33:30;;;;;;;6.35;1.90;;;20.90;79.40;;;;;;4994468;28;20046;-70
2023/04/25 08:35:55;;;;;;;4.85;1.63;;;20.80;79.20;;;;;;5003254;28;20049;-68
2023/04/25 08:38:21;;;;;;;4.60;1.63;;;20.80;79.20;;;;;;5011398;28;20045;-70
2023/04/25 08:40:50;;;;;;;4.03;1.33;;;20.80;76.10;;;;;;5006646;28;20488;-67
2023/04/25 08:43:15;;;;;;;8.55;1.73;;;20.70;79.20;;;;;;5009232;28;20516;-70
2023/04/25 08:45:42;;;;;;;6.10;1.80;;;20.80;79.20;;;;;;5011729;28;20049;-72
2023/04/25 08:48:13;;;;;;;6.65;2.17;;;20.90;76.40;;;;;;5012009;28;20053;-70
2023/04/25 08:50:59;;;;;;;6.15;1.80;;;20.70;79.30;;;;;;5010985;28;20501;-69
2023/04/25 08:53:30;;;;;;;6.63;1.60;;;20.70;74.70;;;;;;5010740;28;20046;-64
2023/04/25 08:55:57;;;;;;;7.63;1.90;;;20.60;77.40;;;;;;5013194;28;20463;-66
2023/04/25 08:58:23;;;;;;;4.65;1.55;;;20.70;79.70;;;;;;5011938;28;20045;-64
2023/04/25 09:00:49;;;;;;;7.60;1.67;;;20.70;79.80;;;;;;5013854;28;20500;-73
2023/04/25 09:03:16;;;;;;;4.55;1.52;;;;;;;;;;5009510;28;20045;-67
2023/04/25 09:05:41;;;;;;;6.43;1.55;;;20.70;79.70;;;;;;5003685;28;20077;-68
2023/04/25 09:08:08;;;;;;;5.32;1.75;;;;;;;;;;4994825;28;20043;-63
2023/04/25 09:10:34;;;;;;;3.97;1.30;;;;;;;;;;5010514;28;20049;-67
2023/04/25 09:13:06;;;;;;;5.43;1.50;;;20.80;79.50;;;;;;5009326;28;20400;-69
2023/04/25 09:15:32;;;;;;;4.40;1.25;;;20.80;75.60;;;;;;5000371;28;20046;-68
2023/04/25 09:17:58;;;;;;;4.35;1.55;;;21.10;76.60;;;;;;5003375;28;20045;-64
2023/04/25 09:20:24;;;;;;;4.30;1.30;;;20.90;79.50;;;;;;5013439;28;20046;-65
2023/04/25 09:23:03;;;;;;;3.40;1.27;;;20.80;76.40;;;;;;5011773;28;20045;-63
2023/04/25 09:25:33;;;;;;;5.55;1.50;;;20.90;76.60;;;;;;4994805;28;20052;-63
2023/04/25 09:27:59;;;;;;;5.25;1.50;;;20.90;76.70;;;;;;4992681;28;20872;-65
2023/04/25 09:30:32;;;;;;;5.72;1.92;;;20.80;79.60;;;;;;4978276;28;20058;-64
2023/04/25 09:33:05;;;;;;;6.88;1.40;;;21.10;79.70;;;;;;4992464;28;20117;-65
2023/04/25 09:35:35;;;;;;;3.58;1.60;;;20.90;77.90;;;;;;5011294;28;20052;-63
2023/04/25 09:38:00;;;;;;;4.25;1.25;;;20.90;78.50;;;;;;5009610;28;20112;-67
2023/04/25 09:40:26;;;;;;;5.07;1.45;;;20.70;79.50;;;;;;5008296;28;20077;-66
2023/04/25 09:42:52;;;;;;;3.80;1.35;;;20.80;79.70;;;;;;5002317;28;20050;-66
2023/04/25 09:45:18;;;;;;;3.35;1.10;;;20.70;79.70;;;;;;4995280;28;20092;-63
2023/04/25 09:47:44;;;;;;;5.15;1.30;;;20.80;79.90;;;;;;5009264;28;20396;-62
2023/04/25 09:50:17;;;;;;;5.32;1.40;;;20.50;75.00;;;;;;5000325;28;20061;-66
2023/04/25 09:52:43;;;;;;;5.10;1.30;;;20.70;79.90;;;;;;4993719;28;20045;-63
2023/04/25 09:55:09;;;;;;;5.95;1.70;;;20.70;79.70;;;;;;5011489;28;20045;-62
2023/04/25 09:57:35;;;;;;;5.28;1.27;;;20.60;79.60;;;;;;5011007;28;20480;-62
2023/04/25 10:00:03;;;;;;;8.20;1.50;;;20.60;79.70;;;;;;4994551;28;20062;-62
2023/04/25 10:02:29;;;;;;;5.05;1.35;;;20.60;79.90;;;;;;5011724;28;20050;-61
2023/04/25 10:04:55;;;;;;;6.60;1.70;;;20.60;80.00;;;;;;5001125;28;20126;-63
2023/04/25 10:07:27;;;;;;;5.43;1.45;;;20.50;77.80;;;;;;4993720;28;20136;-63
2023/04/25 10:10:03;;;;;;;6.93;1.40;;;20.10;80.00;;;;;;5003053;28;20045;-62
2023/04/25 10:12:31;;;;;;;8.68;1.48;;;20.30;80.20;;;;;;5006535;28;20644;-63
2023/04/25 10:14:57;;;;;;;4.57;1.42;;;20.40;78.60;;;;;;4993555;28;20058;-63
2023/04/25 10:17:23;;;;;;;5.13;1.33;;;;;;;;;;5012503;28;20049;-65
2023/04/25 10:19:49;;;;;;;4.57;1.20;;;20.20;80.10;;;;;;5011182;28;20060;-69
2023/04/25 10:22:18;;;;;;;4.97;1.48;;;20.20;76.80;;;;;;5005776;28;20045;-68
2023/04/25 10:24:46;;;;;;;3.92;1.33;;;;;;;;;;5008636;28;20038;-68
2023/04/25 10:27:12;;;;;;;5.15;1.50;;;;;;;;;;5011384;28;20123;-69
2023/04/25 10:29:38;;;;;;;7.50;1.55;;;;;;;;;;5011814;28;20113;-62
2023/04/25 10:32:04;;;;;;;3.95;1.40;;;20.60;80.00;;;;;;4997061;28;20069;-62
2023/04/25 10:34:39;;;;;;;5.72;1.42;;;20.60;80.00;;;;;;5002967;28;20128;-63
2023/04/25 10:37:06;;;;;;;5.45;1.70;;;;;;;;;;5000340;28;20121;-62
2023/04/25 10:39:33;;;;;;;4.03;1.20;;;;;;;;;;5008659;28;20136;-64
2023/04/25 10:41:59;;;;;;;4.57;1.30;;;;;;;;;;5010581;28;20054;-67
2023/04/25 10:44:29;;;;;;;5.63;1.50;;;20.20;79.60;;;;;;5008146;28;20050;-68
2023/04/25 10:47:02;;;;;;;4.50;1.20;;;20.60;74.90;;;;;;5007900;28;20062;-68
2023/04/25 10:49:36;;;;;;;5.63;1.58;;;20.30;78.70;;;;;;4992630;28;20121;-68
2023/04/25 10:52:32;;;;;;;5.10;1.20;;;20.00;75.70;;;;;;4992637;28;20057;-68
2023/04/25 10:54:58;;;;;;;4.28;1.40;;;;;;;;;;4997790;28;20079;-62
2023/04/25 10:57:31;;;;;;;4.78;1.20;;;20.20;79.90;;;;;;4997720;28;20439;-67
2023/04/25 11:00:05;;;;;;;3.90;1.30;;;20.50;80.20;;;;;;5014824;28;20054;-68
2023/04/25 11:02:31;;;;;;;5.20;1.30;;;20.40;80.20;;;;;;5015479;28;20504;-63
2023/04/25 11:04:57;;;;;;;3.03;1.30;;;20.40;80.10;;;;;;5010272;28;20046;-68
2023/04/25 11:07:44;;;;;;;5.90;1.60;;;20.50;80.20;;;;;;5002270;28;20555;-68
2023/04/25 11:10:10;;;;;;;3.65;1.27;;;20.50;80.10;;;;;;5012742;28;20077;-63
2023/04/25 11:12:36;;;;;;;5.05;1.20;;;;;;;;;;4996825;28;20452;-68
2023/04/25 11:15:03;;;;;;;5.63;1.30;;;20.30;80.20;;;;;;5008069;28;20042;-68
2023/04/25 11:17:29;;;;;;;3.50;1.02;;;20.60;80.20;;;;;;5014834;28;20104;-68
2023/04/25 11:19:56;;;;;;;6.68;1.45;;;20.40;80.00;;;;;;5015121;28;20092;-68
2023/04/25 11:22:22;;;;;;;3.55;1.23;;;20.50;80.10;;;;;;5012487;28;20050;-68
2023/04/25 11:24:48;;;;;;;7.90;1.77;;;20.50;80.20;;;;;;5011773;28;20046;-62
2023/04/25 11:27:13;;;;;;;4.20;1.10;;;20.50;80.10;;;;;;5006436;28;20050;-67
2023/04/25 11:29:40;;;;;;;4.80;1.33;;;;;;;;;;5001736;28;20072;-65
2023/04/25 11:32:06;;;;;;;3.83;1.23;;;;;;;;;;5000668;28;20105;-68
2023/04/25 11:34:35;;;;;;;3.75;1.33;;;20.30;77.00;;;;;;5006130;28;20392;-63
2023/04/25 11:37:01;;;;;;;3.35;1.10;;;20.30;79.80;;;;;;5011065;28;20163;-62
2023/04/25 11:39:27;;;;;;;5.40;1.10;;;20.40;76.40;;;;;;5002543;28;20042;-62
2023/04/25 11:41:53;;;;;;;2.83;0.98;;;20.50;79.80;;;;;;5009248;28;20395;-62
2023/04/25 11:44:19;;;;;;;4.15;1.40;;;;;;;;;;5000510;28;20064;-65
2023/04/25 11:46:46;;;;;;;10.10;2.10;;;20.50;79.70;;;;;;5003151;28;20125;-62
2023/04/25 11:49:12;;;;;;;15.88;1.80;;;;;;;;;;5002501;28;20508;-66
2023/04/25 11:51:41;;;;;;;11.32;1.85;;;20.40;78.80;;;;;;5008147;28;20103;-63
2023/04/25 11:54:08;;;;;;;8.57;1.52;;;;;;;;;;5013458;28;20042;-63
2023/04/25 11:56:33;;;;;;;13.18;1.50;;;20.40;79.70;;;;;;5012086;28;20091;-69
2023/04/25 11:59:01;;;;;;;9.23;1.73;;;20.50;76.80;;;;;;5014577;28;20045;-69
2023/04/25 12:01:30;;;;;;;11.10;2.30;;;20.50;79.80;;;;;;5013199;28;20038;-68
2023/04/25 12:03:57;;;;;;;10.75;2.05;;;20.40;79.00;;;;;;5006450;28;20619;-68
2023/04/25 12:06:27;;;;;;;4.45;1.50;;;20.50;78.30;;;;;;4983576;28;20087;-68
2023/04/25 12:09:03;;;;;;;5.82;1.65;;;20.30;77.50;;;;;;5013351;28;20053;-68
2023/04/25 12:11:32;;;;;;;7.35;1.63;;;20.60;79.90;;;;;;5014712;28;20046;-68
2023/04/25 12:14:04;;;;;;;6.85;1.33;;;20.50;79.80;;;;;;5012440;28;20046;-68
2023/04/25 12:16:43;;;;;;;6.05;1.80;;;20.50;79.90;;;;;;5012300;28;20037;-68
2023/04/25 12:19:09;;;;;;;4.50;1.58;;;;;;;;;;5013492;28;20373;-67
2023/04/25 12:21:36;;;;;;;7.78;1.60;;;;;;;;;;5000658;28;20405;-68
2023/04/25 12:24:13;;;;;;;7.50;1.90;;;20.40;76.80;;;;;;4993527;28;20444;-68
2023/04/25 12:26:54;;;;;;;7.63;2.10;;;20.20;79.40;;;;;;4994852;28;20053;-68
2023/04/25 12:29:23;;;;;;;6.88;1.40;;;20.20;79.40;;;;;;5004607;28;20050;-62
2023/04/25 12:31:50;;;;;;;7.88;1.65;;;20.40;79.50;;;;;;5011947;28;20131;-64
2023/04/25 12:34:16;;;;;;;7.97;1.85;;;19.90;79.30;;;;;;5012170;28;20041;-63
2023/04/25 12:36:42;;;;;;;10.63;2.45;;;;;;;;;;5014270;28;20049;-63
2023/04/25 12:39:08;;;;;;;9.90;1.70;;;20.30;79.50;;;;;;4996665;28;20042;-62
2023/04/25 12:41:34;;;;;;;4.93;1.42;;;;;;;;;;5010791;28;20065;-64
2023/04/25 12:44:00;;;;;;;9.73;2.20;;;19.90;79.50;;;;;;5012523;28;20108;-65
2023/04/25 12:46:26;;;;;;;6.38;1.55;;;20.30;79.80;;;;;;5012232;28;20491;-68
2023/04/25 12:48:52;;;;;;;9.98;1.73;;;20.20;78.80;;;;;;5012860;28;20046;-66
2023/04/25 12:51:18;;;;;;;6.68;1.70;;;;;;;;;;5010076;28;20046;-70
2023/04/25 12:53:43;;;;;;;7.03;1.40;;;20.30;80.20;;;;;;5003794;28;20081;-65
2023/04/25 12:56:11;;;;;;;8.73;1.88;;;20.40;80.30;;;;;;5006943;28;20215;-65
2023/04/25 12:58:39;;;;;;;8.45;2.13;;;20.20;80.20;;;;;;4993974;28;20499;-67
2023/04/25 13:01:06;;;;;;;6.78;1.73;;;20.20;80.20;;;;;;4997215;28;20077;-66
2023/04/25 13:03:34;;;;;;;3.65;1.38;;;;;;;;;;5012009;28;20046;-65
2023/04/25 13:06:01;;;;;;;8.45;1.80;;;20.10;78.50;;;;;;5004825;28;20046;-64
2023/04/25 13:08:28;;;;;;;4.88;1.40;;;20.20;80.40;;;;;;4992885;28;20042;-71
2023/04/25 13:10:56;;;;;;;5.72;1.70;;;20.30;80.10;;;;;;5009123;28;20119;-65
2023/04/25 13:13:23;;;;;;;5.05;1.65;;;20.20;80.40;;;;;;5011494;28;20054;-69